createdAt,value
2023-05-05T00:02:37.155Z,17.25
2023-05-05T00:07:41.230Z,17.20
2023-05-05T00:12:43.560Z,17.07
2023-05-05T00:17:47.793Z,17.06
2023-05-05T00:22:49.956Z,17.04
2023-05-05T00:27:54.134Z,16.95
2023-05-05T00:32:58.311Z,16.95
2023-05-05T00:38:02.442Z,16.92
2023-05-05T00:43:06.600Z,16.92
2023-05-05T00:48:10.845Z,16.95
2023-05-05T00:53:14.923Z,16.87
2023-05-05T00:58:19.065Z,16.87
2023-05-05T01:03:23.294Z,16.95
2023-05-05T01:08:27.395Z,17.04
2023-05-05T01:13:31.579Z,17.00
2023-05-05T01:18:35.690Z,16.91
2023-05-05T01:23:39.868Z,16.77
2023-05-05T01:28:44.031Z,16.62
2023-05-05T01:33:48.181Z,16.54
2023-05-05T01:38:52.344Z,16.48
2023-05-05T01:43:56.504Z,16.41
2023-05-05T01:49:00.680Z,16.33
2023-05-05T01:54:04.795Z,16.31
2023-05-05T01:59:08.972Z,16.29
2023-05-05T02:04:13.133Z,16.26
2023-05-05T02:09:15.405Z,16.16
2023-05-05T02:19:23.735Z,15.92
2023-05-05T02:24:25.990Z,15.78
2023-05-05T02:29:30.175Z,15.65
2023-05-05T02:34:34.301Z,15.50
2023-05-05T02:39:38.483Z,15.41
2023-05-05T02:44:42.667Z,15.22
2023-05-05T02:49:46.788Z,15.21
2023-05-05T02:54:50.996Z,15.16
2023-05-05T02:59:55.103Z,15.06
2023-05-05T03:04:59.276Z,15.05
2023-05-05T03:10:03.427Z,15.11
2023-05-05T03:15:07.582Z,15.28
2023-05-05T03:20:11.770Z,15.48
2023-05-05T03:25:15.922Z,15.56
2023-05-05T03:30:20.072Z,15.62
2023-05-05T03:35:24.233Z,15.63
2023-05-05T03:40:40.368Z,15.61
2023-05-05T03:45:32.715Z,15.53
2023-05-05T03:50:36.741Z,15.41
2023-05-05T03:55:40.880Z,15.29
2023-05-05T04:00:45.049Z,15.26
2023-05-05T04:05:49.174Z,15.17
2023-05-05T04:10:51.483Z,15.09
2023-05-05T04:15:55.659Z,15.09
2023-05-05T04:20:59.808Z,15.08
2023-05-05T04:26:03.945Z,15.16
2023-05-05T04:31:08.141Z,15.13
2023-05-05T04:36:10.405Z,15.02
2023-05-05T04:41:14.547Z,14.92
2023-05-05T04:46:18.757Z,14.85
2023-05-05T04:51:22.858Z,14.89
2023-05-05T04:56:27.008Z,14.90
2023-05-05T05:01:31.176Z,14.91
2023-05-05T05:06:35.335Z,14.97
2023-05-05T05:11:39.474Z,15.03
2023-05-05T05:16:43.666Z,15.04
2023-05-05T05:21:47.817Z,15.08
2023-05-05T05:26:51.957Z,15.15
2023-05-05T05:31:56.138Z,15.19
2023-05-05T05:37:00.300Z,15.31
2023-05-05T05:42:04.478Z,15.41
2023-05-05T05:47:08.610Z,15.47
2023-05-05T05:52:12.765Z,15.56
2023-05-05T05:57:16.941Z,15.62
2023-05-05T06:02:21.125Z,15.63
2023-05-05T06:07:25.289Z,15.73
2023-05-05T06:12:29.387Z,15.80
2023-05-05T06:17:33.584Z,15.85
2023-05-05T06:22:35.844Z,15.96
2023-05-05T06:27:39.983Z,16.06
2023-05-05T06:32:42.298Z,16.14
2023-05-05T06:37:46.437Z,16.26
2023-05-05T06:42:50.568Z,16.29
2023-05-05T06:47:54.799Z,16.40
2023-05-05T06:52:58.997Z,16.55
2023-05-05T06:58:03.074Z,16.79
2023-05-05T07:03:05.381Z,17.03
2023-05-05T07:08:09.508Z,17.23
2023-05-05T07:13:13.769Z,17.31
2023-05-05T07:18:17.841Z,17.46
2023-05-05T07:23:21.995Z,17.64
2023-05-05T07:28:26.138Z,17.68
2023-05-05T07:33:30.304Z,17.83
2023-05-05T07:38:34.439Z,17.94
2023-05-05T07:43:39.401Z,17.92
2023-05-05T07:48:42.785Z,18.04
2023-05-05T07:53:46.944Z,18.13
2023-05-05T07:58:51.110Z,18.26
2023-05-05T08:03:55.358Z,18.46
2023-05-05T08:08:59.390Z,18.58
2023-05-05T08:14:03.575Z,18.76
2023-05-05T08:19:14.851Z,18.84
2023-05-05T08:24:11.858Z,18.94
2023-05-05T08:29:16.046Z,18.95
2023-05-05T08:34:20.211Z,19.08
2023-05-05T08:39:24.365Z,19.19
2023-05-05T08:44:28.540Z,19.31
2023-05-05T08:49:30.806Z,19.41
2023-05-05T08:54:34.948Z,19.40
2023-05-05T08:59:37.217Z,19.50
2023-05-05T09:04:41.382Z,19.53
2023-05-05T09:09:45.539Z,19.57
2023-05-05T09:14:49.768Z,19.67
2023-05-05T09:19:53.890Z,19.67
2023-05-05T09:24:58.020Z,19.74
2023-05-05T09:30:02.190Z,19.90
2023-05-05T09:35:06.541Z,19.97
2023-05-05T09:40:10.522Z,20.18
2023-05-05T09:45:14.680Z,20.49
2023-05-05T09:50:19.148Z,20.87
2023-05-05T09:55:22.971Z,21.19
2023-05-05T10:00:27.216Z,21.16
2023-05-05T10:05:31.262Z,21.19
2023-05-05T10:10:35.466Z,21.43
2023-05-05T10:15:39.629Z,21.63
2023-05-05T10:20:43.771Z,21.65
2023-05-05T10:25:47.907Z,21.87
2023-05-05T10:30:52.081Z,21.91
2023-05-05T10:35:56.245Z,21.58
2023-05-05T10:41:00.402Z,21.54
2023-05-05T10:46:02.695Z,21.49
2023-05-05T10:51:06.844Z,21.50
2023-05-05T10:56:10.997Z,21.72
2023-05-05T11:01:15.261Z,21.96
2023-05-05T11:06:19.295Z,22.10
2023-05-05T11:11:23.480Z,22.20
2023-05-05T11:16:27.640Z,22.60
2023-05-05T11:21:31.783Z,22.91
2023-05-05T11:26:35.912Z,22.68
2023-05-05T11:31:40.161Z,22.46
2023-05-05T11:36:44.266Z,22.31
2023-05-05T11:41:48.419Z,22.15
2023-05-05T11:46:54.365Z,21.88
2023-05-05T11:51:56.723Z,21.68
2023-05-05T11:57:00.889Z,21.80
2023-05-05T12:02:05.069Z,21.79
2023-05-05T12:07:09.205Z,21.53
2023-05-05T12:12:13.412Z,21.30
2023-05-05T12:17:17.536Z,21.06
2023-05-05T12:22:21.695Z,20.74
2023-05-05T12:27:25.846Z,20.48
2023-05-05T12:32:28.196Z,19.31
2023-05-05T12:37:32.309Z,18.37
2023-05-05T12:42:34.520Z,17.57
2023-05-05T12:47:38.749Z,16.96
2023-05-05T12:52:40.960Z,16.72
2023-05-05T12:57:45.116Z,16.58
2023-05-05T13:02:49.443Z,16.45
2023-05-05T13:07:53.447Z,16.34
2023-05-05T13:12:57.641Z,16.54
2023-05-05T13:18:01.983Z,16.54
2023-05-05T13:23:05.891Z,16.58
2023-05-05T13:28:10.104Z,16.96
2023-05-05T13:33:14.264Z,17.21
2023-05-05T13:38:18.408Z,17.59
2023-05-05T13:43:22.577Z,17.68
2023-05-05T13:48:26.745Z,17.67
2023-05-05T13:53:30.874Z,17.78
2023-05-05T14:08:43.379Z,18.28
2023-05-05T14:13:45.613Z,18.31
2023-05-05T14:18:56.796Z,18.24
2023-05-05T14:24:07.967Z,18.26
2023-05-05T14:29:19.125Z,18.31
2023-05-05T14:34:30.528Z,18.24
2023-05-05T14:39:41.448Z,18.26
2023-05-05T14:44:50.742Z,18.17
2023-05-05T14:49:54.876Z,18.03
2023-05-05T14:54:59.046Z,17.99
2023-05-05T15:00:03.208Z,17.97
2023-05-05T15:05:07.749Z,17.96
2023-05-05T15:10:11.508Z,17.98
2023-05-05T15:15:13.821Z,18.11
2023-05-05T15:20:19.948Z,18.17
2023-05-05T15:25:22.081Z,17.84
2023-05-05T15:30:26.273Z,17.07
2023-05-05T15:35:30.413Z,16.44
2023-05-05T15:40:34.621Z,15.99
2023-05-05T15:45:38.737Z,15.45
2023-05-05T15:50:42.920Z,15.19
2023-05-05T15:55:47.073Z,14.92
2023-05-05T16:00:51.273Z,14.77
2023-05-05T16:05:55.385Z,14.62
2023-05-05T16:10:59.534Z,14.48
2023-05-05T16:16:03.736Z,14.34
2023-05-05T16:21:08.094Z,14.29
2023-05-05T16:26:12.026Z,14.18
2023-05-05T16:31:14.317Z,14.05
2023-05-05T16:36:18.453Z,14.10
2023-05-05T16:41:20.774Z,14.11
2023-05-05T16:46:24.901Z,14.17
2023-05-05T16:51:29.034Z,14.10
2023-05-05T16:56:33.206Z,14.02
2023-05-05T17:01:37.374Z,13.81
2023-05-05T17:06:41.520Z,13.94
2023-05-05T17:11:45.700Z,13.75
2023-05-05T17:16:49.827Z,13.85
2023-05-05T17:21:54.007Z,13.94
2023-05-05T17:26:58.227Z,14.09
2023-05-05T17:32:02.410Z,14.09
2023-05-05T17:37:06.465Z,14.02
2023-05-05T17:42:10.655Z,13.91
2023-05-05T17:47:14.802Z,13.87
2023-05-05T17:52:18.968Z,13.84
2023-05-05T17:57:23.168Z,13.81
2023-05-05T18:02:27.463Z,13.73
2023-05-05T18:07:31.430Z,13.70
2023-05-05T18:12:35.785Z,13.62
2023-05-05T18:17:39.800Z,13.56
2023-05-05T18:22:43.970Z,13.33
2023-05-05T18:27:46.192Z,13.28
2023-05-05T18:32:50.428Z,13.18
2023-05-05T18:37:52.670Z,13.14
2023-05-05T18:42:56.780Z,13.11
2023-05-05T18:48:00.983Z,13.01
2023-05-05T18:53:05.101Z,12.93
2023-05-05T18:58:09.304Z,12.91
2023-05-05T19:03:13.469Z,12.89
2023-05-05T19:08:17.587Z,12.84
2023-05-05T19:13:21.844Z,12.77
2023-05-05T19:18:25.919Z,12.73
2023-05-05T19:23:30.105Z,12.61
2023-05-05T19:28:34.248Z,12.55
2023-05-05T19:33:38.399Z,12.42
2023-05-05T19:38:42.600Z,12.39
2023-05-05T19:43:46.738Z,12.27
2023-05-05T19:48:50.872Z,12.17
2023-05-05T19:53:55.102Z,12.04
2023-05-05T19:58:59.220Z,11.92
2023-05-05T20:04:03.389Z,11.93
2023-05-05T20:09:07.551Z,11.78
2023-05-05T20:14:11.686Z,11.62
2023-05-05T20:19:15.839Z,11.52
2023-05-05T20:24:18.090Z,11.38
2023-05-05T20:29:22.289Z,11.36
2023-05-05T20:34:24.542Z,11.18
2023-05-05T20:39:28.721Z,11.26
2023-05-05T20:44:32.903Z,11.45
2023-05-05T20:49:37.052Z,11.53
2023-05-05T20:54:41.177Z,11.57
2023-05-05T20:59:45.350Z,11.54
2023-05-05T21:04:49.537Z,11.55
2023-05-05T21:09:53.689Z,11.56
2023-05-05T21:14:57.809Z,11.47
2023-05-05T21:20:01.980Z,11.27
2023-05-05T21:25:06.153Z,11.21
2023-05-05T21:30:11.137Z,11.20
2023-05-05T21:35:14.466Z,11.20
2023-05-05T21:40:18.647Z,11.18
2023-05-05T21:45:22.821Z,11.15
2023-05-05T21:50:28.238Z,11.12
2023-05-05T21:55:31.101Z,11.14
2023-05-05T22:00:35.273Z,11.13
2023-05-05T22:05:39.436Z,11.13
2023-05-05T22:10:43.582Z,11.15
2023-05-05T22:15:47.840Z,11.12
2023-05-05T22:20:50.714Z,11.08
2023-05-05T22:25:54.435Z,11.06
2023-05-05T22:30:56.714Z,11.00
2023-05-05T22:36:00.913Z,11.01
2023-05-05T22:41:04.791Z,10.98
2023-05-05T22:46:08.958Z,10.94
2023-05-05T22:51:13.190Z,10.92
2023-05-05T22:56:17.788Z,10.89
2023-05-05T23:01:21.520Z,10.85
2023-05-05T23:06:25.580Z,10.84
2023-05-05T23:11:29.751Z,10.80
2023-05-05T23:16:33.940Z,10.74
2023-05-05T23:21:49.361Z,10.71
2023-05-05T23:26:42.223Z,10.61
2023-05-05T23:31:46.412Z,10.49
2023-05-05T23:36:50.573Z,10.47
2023-05-05T23:41:54.713Z,10.28
2023-05-05T23:46:58.882Z,10.17
2023-05-05T23:52:03.054Z,10.14
2023-05-05T23:57:07.189Z,10.14
